createdAt,value
2022-09-06T00:01:23.477Z,94510.19
2022-09-06T00:03:51.021Z,94510.50
2022-09-06T00:06:19.556Z,94492.88
2022-09-06T00:08:47.637Z,94503.00
2022-09-06T00:11:15.484Z,94491.88
2022-09-06T00:13:42.902Z,94495.13
2022-09-06T00:16:18.630Z,94501.75
2022-09-06T00:18:45.804Z,94492.75
2022-09-06T00:21:21.814Z,94497.03
2022-09-06T00:23:48.895Z,94497.47
2022-09-06T00:26:16.026Z,94495.19
2022-09-06T00:28:42.784Z,94486.56
2022-09-06T00:31:12.040Z,94492.75
2022-09-06T00:33:39.030Z,94506.25
2022-09-06T00:36:06.291Z,94506.56
2022-09-06T00:38:33.569Z,94520.41
2022-09-06T00:41:00.431Z,94512.06
2022-09-06T00:43:27.493Z,94509.31
2022-09-06T00:45:55.013Z,94512.75
2022-09-06T00:48:23.361Z,94497.50
2022-09-06T00:50:54.335Z,94502.06
2022-09-06T00:53:21.610Z,94482.22
2022-09-06T00:55:48.868Z,94493.41
2022-09-06T00:58:16.102Z,94485.44
2022-09-06T01:00:44.675Z,94477.63
2022-09-06T01:03:12.541Z,94490.66
2022-09-06T01:06:21.938Z,94492.69
2022-09-06T01:09:20.097Z,94492.56
2022-09-06T01:12:06.963Z,94485.16
2022-09-06T01:14:36.579Z,94493.28
2022-09-06T01:17:26.122Z,94485.44
2022-09-06T01:20:23.565Z,94497.78
2022-09-06T01:23:14.752Z,94498.06
2022-09-06T01:26:19.059Z,94494.50
2022-09-06T01:28:50.817Z,94494.41
2022-09-06T01:31:38.043Z,94502.09
2022-09-06T01:34:07.760Z,94509.78
2022-09-06T01:36:34.376Z,94516.69
2022-09-06T01:39:01.911Z,94510.41
2022-09-06T01:41:29.499Z,94496.06
2022-09-06T01:43:57.195Z,94512.22
2022-09-06T01:46:39.735Z,94510.44
2022-09-06T01:49:48.331Z,94513.94
2022-09-06T01:52:42.102Z,94507.59
2022-09-06T01:55:11.782Z,94516.41
2022-09-06T01:57:49.093Z,94516.75
2022-09-06T02:00:18.575Z,94502.31
2022-09-06T02:03:09.197Z,94511.63
2022-09-06T02:05:49.973Z,94511.13
2022-09-06T02:08:22.411Z,94511.06
2022-09-06T02:11:00.435Z,94514.56
2022-09-06T02:13:33.251Z,94514.06
2022-09-06T02:16:04.024Z,94510.06
2022-09-06T02:18:40.881Z,94508.38
2022-09-06T02:21:10.447Z,94486.28
2022-09-06T02:23:40.443Z,94517.72
2022-09-06T02:26:15.653Z,94509.63
2022-09-06T02:28:42.376Z,94511.88
2022-09-06T02:31:22.270Z,94507.19
2022-09-06T02:33:51.185Z,94513.44
2022-09-06T02:36:18.837Z,94516.16
2022-09-06T02:38:46.187Z,94521.13
2022-09-06T02:41:16.117Z,94515.63
2022-09-06T02:43:43.623Z,94511.19
2022-09-06T02:46:10.705Z,94505.78
2022-09-06T02:48:37.487Z,94506.63
2022-09-06T02:51:08.856Z,94494.34
2022-09-06T02:53:36.093Z,94496.69
2022-09-06T02:56:03.127Z,94505.28
2022-09-06T02:58:30.116Z,94494.25
2022-09-06T03:00:56.838Z,94490.00
2022-09-06T03:03:24.931Z,94490.34
2022-09-06T03:05:53.382Z,94496.81
2022-09-06T03:08:21.932Z,94495.88
2022-09-06T03:10:53.869Z,94494.59
2022-09-06T03:13:20.940Z,94492.31
2022-09-06T03:16:05.960Z,94489.88
2022-09-06T03:18:33.041Z,94488.59
2022-09-06T03:20:59.882Z,94486.66
2022-09-06T03:23:28.873Z,94475.78
2022-09-06T03:25:56.269Z,94473.03
2022-09-06T03:28:23.534Z,94476.16
2022-09-06T03:30:51.872Z,94471.97
2022-09-06T03:33:19.998Z,94476.78
2022-09-06T03:35:58.746Z,94475.47
2022-09-06T03:38:27.408Z,94474.69
2022-09-06T03:40:54.802Z,94472.84
2022-09-06T03:43:23.383Z,94470.69
2022-09-06T03:45:55.612Z,94504.13
2022-09-06T03:48:23.956Z,94533.69
2022-09-06T03:50:54.239Z,94519.63
2022-09-06T03:53:22.138Z,94560.25
2022-09-06T03:55:51.798Z,94572.81
2022-09-06T03:58:20.480Z,94570.63
2022-09-06T04:00:47.239Z,94548.69
2022-09-06T04:03:14.281Z,94549.56
2022-09-06T04:05:44.636Z,94545.38
2022-09-06T04:08:11.331Z,94541.59
2022-09-06T04:10:38.328Z,94543.84
2022-09-06T04:13:05.043Z,94527.72
2022-09-06T04:15:31.698Z,94544.28
2022-09-06T04:17:58.522Z,94519.38
2022-09-06T04:20:25.184Z,94531.81
2022-09-06T04:22:51.947Z,94534.63
2022-09-06T04:25:18.647Z,94533.66
2022-09-06T04:27:45.297Z,94540.81
2022-09-06T04:30:12.078Z,94562.78
2022-09-06T04:32:38.743Z,94578.34
2022-09-06T04:35:06.043Z,94601.13
2022-09-06T04:37:32.712Z,94574.44
2022-09-06T04:39:59.472Z,94529.69
2022-09-06T04:42:26.238Z,94494.34
2022-09-06T04:44:52.923Z,94474.78
2022-09-06T04:47:19.959Z,94461.09
2022-09-06T04:49:49.510Z,94435.44
2022-09-06T04:52:16.463Z,94393.19
2022-09-06T04:54:43.324Z,94432.63
2022-09-06T04:57:10.039Z,94430.91
2022-09-06T04:59:36.941Z,94433.41
2022-09-06T05:02:03.722Z,94440.38
2022-09-06T05:04:30.527Z,94448.34
2022-09-06T05:07:02.177Z,94454.19
2022-09-06T05:09:29.031Z,94452.19
2022-09-06T05:11:56.234Z,94459.25
2022-09-06T05:14:23.045Z,94481.69
2022-09-06T05:16:50.398Z,94483.97
2022-09-06T05:19:17.845Z,94508.72
2022-09-06T05:21:45.069Z,94511.38
2022-09-06T05:24:12.129Z,94512.34
2022-09-06T05:26:38.859Z,94501.41
2022-09-06T05:29:06.297Z,94504.88
2022-09-06T05:31:34.683Z,94512.88
2022-09-06T05:34:01.625Z,94513.22
2022-09-06T05:36:29.718Z,94503.06
2022-09-06T05:38:57.862Z,94510.44
2022-09-06T05:41:25.463Z,94527.16
2022-09-06T05:43:52.363Z,94531.88
2022-09-06T05:46:19.296Z,94522.41
2022-09-06T05:48:55.521Z,94525.25
2022-09-06T05:51:22.246Z,94532.66
2022-09-06T05:53:48.980Z,94533.78
2022-09-06T05:56:16.574Z,94560.94
2022-09-06T05:58:43.299Z,94589.97
2022-09-06T06:01:21.672Z,94576.09
2022-09-06T06:03:54.135Z,94571.31
2022-09-06T06:06:22.143Z,94564.91
2022-09-06T06:08:48.944Z,94558.16
2022-09-06T06:11:16.243Z,94556.88
2022-09-06T06:13:43.857Z,94572.09
2022-09-06T06:16:15.266Z,94578.78
2022-09-06T06:18:42.459Z,94573.50
2022-09-06T06:21:10.074Z,94576.00
2022-09-06T06:23:36.942Z,94578.94
2022-09-06T06:26:03.838Z,94579.78
2022-09-06T06:28:31.091Z,94576.34
2022-09-06T06:30:57.758Z,94569.00
2022-09-06T06:33:24.443Z,94565.44
2022-09-06T06:36:17.775Z,94571.63
2022-09-06T06:38:46.030Z,94586.94
2022-09-06T06:41:14.797Z,94591.66
2022-09-06T06:43:41.924Z,94595.50
2022-09-06T06:46:11.016Z,94606.03
2022-09-06T06:48:41.926Z,94597.09
2022-09-06T06:51:10.051Z,94605.44
2022-09-06T06:53:36.873Z,94600.81
2022-09-06T06:56:19.386Z,94603.34
2022-09-06T06:58:54.293Z,94594.19
2022-09-06T07:01:22.485Z,94583.56
2022-09-06T07:03:49.636Z,94578.38
2022-09-06T07:06:17.200Z,94583.34
2022-09-06T07:08:43.895Z,94591.44
2022-09-06T07:11:13.214Z,94586.63
2022-09-06T07:13:40.289Z,94579.78
2022-09-06T07:16:13.566Z,94580.03
2022-09-06T07:18:43.429Z,94573.59
2022-09-06T07:26:31.881Z,94571.19
2022-09-06T07:29:00.724Z,94571.59
2022-09-06T07:34:16.162Z,94553.38
2022-09-06T07:36:42.883Z,94567.97
2022-09-06T07:39:09.551Z,94574.69
2022-09-06T07:41:36.217Z,94561.50
2022-09-06T07:44:03.420Z,94562.25
2022-09-06T07:46:30.115Z,94566.13
2022-09-06T07:48:56.926Z,94565.28
2022-09-06T07:51:23.652Z,94564.94
2022-09-06T07:53:57.877Z,94563.78
2022-09-06T07:56:30.197Z,94561.44
2022-09-06T07:58:57.672Z,94567.25
2022-09-06T08:01:30.167Z,94574.63
2022-09-06T08:04:08.737Z,94559.81
2022-09-06T08:09:25.235Z,94571.91
2022-09-06T08:11:52.845Z,94583.97
2022-09-06T08:14:20.454Z,94575.94
2022-09-06T08:16:47.318Z,94548.22
2022-09-06T08:19:14.152Z,94570.56
2022-09-06T08:21:40.900Z,94571.06
2022-09-06T08:24:12.535Z,94567.34
2022-09-06T08:26:40.757Z,94575.44
2022-09-06T08:29:08.952Z,94572.19
2022-09-06T08:31:38.959Z,94568.78
2022-09-06T08:34:06.266Z,94573.94
2022-09-06T08:36:33.794Z,94564.97
2022-09-06T08:39:03.916Z,94568.84
2022-09-06T08:41:52.053Z,94554.06
2022-09-06T08:47:19.743Z,94566.34
2022-09-06T08:49:54.756Z,94551.91
2022-09-06T08:53:06.509Z,94559.41
2022-09-06T08:55:42.295Z,94565.31
2022-09-06T08:58:21.237Z,94562.53
2022-09-06T09:00:58.712Z,94562.28
2022-09-06T09:03:36.710Z,94539.09
2022-09-06T09:06:10.203Z,94546.47
2022-09-06T09:08:55.677Z,94555.75
2022-09-06T09:11:25.597Z,94543.47
2022-09-06T09:14:26.818Z,94549.66
2022-09-06T09:16:56.626Z,94533.19
2022-09-06T09:19:23.311Z,94524.97
2022-09-06T09:21:50.010Z,94524.41
2022-09-06T09:24:16.761Z,94533.88
2022-09-06T09:27:11.193Z,94537.44
2022-09-06T09:32:46.297Z,94538.84
2022-09-06T09:35:41.846Z,94542.22
2022-09-06T09:38:12.414Z,94528.16
2022-09-06T09:40:50.423Z,94542.97
2022-09-06T09:43:22.363Z,94543.31
2022-09-06T09:46:07.873Z,94534.41
2022-09-06T09:48:34.621Z,94533.06
2022-09-06T09:51:27.489Z,94521.13
2022-09-06T09:53:59.938Z,94525.47
2022-09-06T09:56:37.795Z,94521.22
2022-09-06T09:59:16.008Z,94515.50
2022-09-06T10:01:42.735Z,94516.72
2022-09-06T10:07:19.806Z,94521.91
2022-09-06T10:09:50.173Z,94514.25
2022-09-06T10:12:19.859Z,94518.22
2022-09-06T10:14:49.932Z,94516.22
2022-09-06T10:17:38.576Z,94514.25
2022-09-06T10:20:10.841Z,94514.91
2022-09-06T10:22:49.866Z,94515.72
2022-09-06T10:25:25.917Z,94509.88
2022-09-06T10:28:19.081Z,94521.44
2022-09-06T10:30:57.699Z,94509.50
2022-09-06T10:33:31.066Z,94516.38
2022-09-06T10:36:02.191Z,94509.88
2022-09-06T10:38:42.017Z,94502.72
2022-09-06T10:41:34.905Z,94502.28
2022-09-06T10:44:36.759Z,94505.91
2022-09-06T10:47:11.750Z,94501.09
2022-09-06T10:49:41.017Z,94500.72
2022-09-06T10:52:13.459Z,94500.72
2022-09-06T10:54:41.523Z,94499.59
2022-09-06T11:00:13.279Z,94504.44
2022-09-06T11:05:46.595Z,94497.28
2022-09-06T11:11:17.280Z,94486.66
2022-09-06T11:13:44.072Z,94491.69
2022-09-06T11:16:22.859Z,94491.31
2022-09-06T11:19:05.392Z,94495.03
2022-09-06T11:21:35.108Z,94484.34
2022-09-06T11:24:25.409Z,94487.75
2022-09-06T11:27:07.421Z,94491.38
2022-09-06T11:29:35.671Z,94493.25
2022-09-06T11:32:24.135Z,94486.84
2022-09-06T11:34:56.811Z,94489.78
2022-09-06T11:37:27.665Z,94491.06
2022-09-06T11:42:51.239Z,94477.59
2022-09-06T11:45:40.883Z,94479.31
2022-09-06T11:48:34.318Z,94475.59
2022-09-06T11:51:10.797Z,94478.09
2022-09-06T11:53:49.938Z,94480.91
2022-09-06T11:56:30.116Z,94475.59
2022-09-06T11:59:03.772Z,94475.13
2022-09-06T12:01:30.458Z,94471.75
2022-09-06T12:04:05.476Z,94471.66
2022-09-06T12:06:40.909Z,94458.94
2022-09-06T12:09:46.909Z,94457.97
2022-09-06T12:12:41.152Z,94461.19
2022-09-06T12:15:32.807Z,94452.84
2022-09-06T12:18:00.294Z,94439.50
2022-09-06T12:20:53.127Z,94449.50
2022-09-06T12:23:34.796Z,94447.16
2022-09-06T12:26:02.494Z,94451.72
2022-09-06T12:28:38.779Z,94448.81
2022-09-06T12:31:28.890Z,94444.56
2022-09-06T12:33:57.919Z,94442.31
2022-09-06T12:36:30.431Z,94450.03
2022-09-06T12:38:58.820Z,94447.09
2022-09-06T12:41:28.539Z,94447.22
2022-09-06T12:43:56.310Z,94447.28
2022-09-06T12:46:25.688Z,94435.13
2022-09-06T12:49:11.867Z,94451.13
2022-09-06T12:51:41.043Z,94440.53
2022-09-06T12:54:20.468Z,94435.38
2022-09-06T12:56:47.775Z,94440.19
2022-09-06T12:59:24.535Z,94439.09
2022-09-06T13:01:56.242Z,94438.97
2022-09-06T13:04:41.545Z,94446.09
2022-09-06T13:07:15.648Z,94436.06
2022-09-06T13:09:49.046Z,94450.66
2022-09-06T13:12:26.366Z,94445.69
2022-09-06T13:14:56.438Z,94440.38
2022-09-06T13:17:25.963Z,94428.03
2022-09-06T13:19:52.792Z,94430.25
2022-09-06T13:22:42.763Z,94437.44
2022-09-06T13:25:18.652Z,94435.97
2022-09-06T13:27:56.591Z,94437.94
2022-09-06T13:30:37.346Z,94438.06
2022-09-06T13:33:07.295Z,94425.59
2022-09-06T13:35:38.241Z,94428.25
2022-09-06T13:38:35.066Z,94431.03
2022-09-06T13:41:12.546Z,94420.66
2022-09-06T13:43:45.915Z,94416.19
2022-09-06T13:46:12.772Z,94419.63
2022-09-06T13:48:39.741Z,94417.41
2022-09-06T13:51:08.148Z,94410.09
2022-09-06T13:53:35.563Z,94411.03
2022-09-06T13:56:02.764Z,94415.94
2022-09-06T13:58:29.935Z,94409.56
2022-09-06T14:00:56.969Z,94398.13
2022-09-06T14:03:31.287Z,94398.63
2022-09-06T14:06:00.335Z,94397.28
2022-09-06T14:08:38.874Z,94395.69
2022-09-06T14:11:15.323Z,94386.75
2022-09-06T14:13:42.127Z,94382.63
2022-09-06T14:16:08.913Z,94386.44
2022-09-06T14:18:36.414Z,94386.28
2022-09-06T14:21:05.308Z,94380.25
2022-09-06T14:23:32.019Z,94383.22
2022-09-06T14:26:00.709Z,94383.47
2022-09-06T14:28:28.779Z,94377.63
2022-09-06T14:30:55.539Z,94373.81
2022-09-06T14:33:22.425Z,94383.81
2022-09-06T14:35:49.394Z,94372.03
2022-09-06T14:38:16.118Z,94370.06
2022-09-06T14:40:44.294Z,94363.78
2022-09-06T14:43:11.209Z,94361.88
2022-09-06T14:45:37.881Z,94372.81
2022-09-06T14:48:05.580Z,94367.94
2022-09-06T14:50:32.521Z,94366.47
2022-09-06T14:52:59.278Z,94357.84
2022-09-06T14:55:28.131Z,94363.16
2022-09-06T14:57:55.036Z,94364.41
2022-09-06T15:00:22.793Z,94373.13
2022-09-06T15:02:49.532Z,94369.06
2022-09-06T15:05:16.364Z,94367.66
2022-09-06T15:07:43.265Z,94372.72
2022-09-06T15:10:10.946Z,94370.41
2022-09-06T15:12:38.186Z,94373.50
2022-09-06T15:15:05.770Z,94377.78
2022-09-06T15:17:34.349Z,94365.75
2022-09-06T15:20:01.305Z,94367.59
2022-09-06T15:22:28.022Z,94373.16
2022-09-06T15:24:54.738Z,94363.22
2022-09-06T15:27:21.690Z,94360.25
2022-09-06T15:29:48.370Z,94365.44
2022-09-06T15:32:15.026Z,94372.56
2022-09-06T15:34:41.791Z,94361.69
2022-09-06T15:37:08.471Z,94376.25
2022-09-06T15:39:35.259Z,94368.16
2022-09-06T15:42:01.947Z,94358.44
2022-09-06T15:44:28.653Z,94354.56
2022-09-06T15:47:00.159Z,94358.22
2022-09-06T15:49:28.661Z,94360.25
2022-09-06T15:51:57.066Z,94351.00
2022-09-06T15:54:42.946Z,94355.22
2022-09-06T15:57:09.714Z,94354.94
2022-09-06T15:59:36.571Z,94348.81
2022-09-06T16:02:03.448Z,94359.78
2022-09-06T16:04:30.215Z,94353.63
2022-09-06T16:06:56.895Z,94340.47
2022-09-06T16:09:23.764Z,94359.31
2022-09-06T16:11:50.496Z,94343.75
2022-09-06T16:14:17.968Z,94341.53
2022-09-06T16:16:44.878Z,94341.66
2022-09-06T16:19:12.725Z,94333.41
2022-09-06T16:21:41.740Z,94329.13
2022-09-06T16:24:11.069Z,94327.13
2022-09-06T16:26:40.542Z,94329.84
2022-09-06T16:29:08.482Z,94321.28
2022-09-06T16:31:40.056Z,94311.09
2022-09-06T16:34:08.464Z,94298.66
2022-09-06T16:36:35.315Z,94296.34
2022-09-06T16:39:02.446Z,94300.63
2022-09-06T16:41:46.278Z,94308.44
2022-09-06T16:44:17.029Z,94320.31
2022-09-06T16:46:48.570Z,94307.16
2022-09-06T16:49:17.478Z,94310.38
2022-09-06T16:51:44.532Z,94310.91
2022-09-06T16:54:11.251Z,94319.56
2022-09-06T16:56:39.065Z,94307.88
2022-09-06T16:59:08.426Z,94307.91
2022-09-06T17:01:36.732Z,94305.66
2022-09-06T17:04:05.620Z,94310.44
2022-09-06T17:06:34.181Z,94309.75
2022-09-06T17:09:01.009Z,94287.22
2022-09-06T17:11:28.825Z,94302.06
2022-09-06T17:13:56.907Z,94279.50
2022-09-06T17:16:43.507Z,94295.16
2022-09-06T17:19:11.108Z,94299.47
2022-09-06T17:21:39.305Z,94300.72
2022-09-06T17:24:06.821Z,94291.84
2022-09-06T17:26:36.246Z,94288.38
2022-09-06T17:29:03.326Z,94291.91
2022-09-06T17:31:30.957Z,94289.31
2022-09-06T17:33:59.791Z,94291.34
2022-09-06T17:36:31.751Z,94296.44
2022-09-06T17:39:04.742Z,94309.41
2022-09-06T17:41:40.158Z,94306.38
2022-09-06T17:44:10.504Z,94305.31
2022-09-06T17:46:41.145Z,94299.09
2022-09-06T17:49:10.806Z,94301.88
2022-09-06T17:51:37.990Z,94289.13
2022-09-06T17:54:06.103Z,94296.16
2022-09-06T17:56:34.454Z,94299.28
2022-09-06T17:59:07.642Z,94302.81
2022-09-06T18:01:37.317Z,94305.16
2022-09-06T18:04:09.450Z,94297.38
2022-09-06T18:06:39.973Z,94301.69
2022-09-06T18:09:14.612Z,94307.19
2022-09-06T18:11:45.580Z,94304.91
2022-09-06T18:14:18.767Z,94296.81
2022-09-06T18:16:47.186Z,94317.84
2022-09-06T18:19:15.295Z,94307.78
2022-09-06T18:21:41.982Z,94316.69
2022-09-06T18:24:10.328Z,94313.59
2022-09-06T18:26:37.570Z,94307.34
2022-09-06T18:29:07.158Z,94309.78
2022-09-06T18:31:34.297Z,94320.47
2022-09-06T18:34:01.203Z,94307.69
2022-09-06T18:36:31.972Z,94306.22
2022-09-06T18:39:04.271Z,94314.41
2022-09-06T18:41:51.197Z,94316.41
2022-09-06T18:44:18.036Z,94314.13
2022-09-06T18:46:44.861Z,94316.44
2022-09-06T18:49:14.325Z,94310.19
2022-09-06T18:51:41.381Z,94316.41
2022-09-06T18:54:08.076Z,94299.66
2022-09-06T18:56:34.899Z,94313.28
2022-09-06T18:59:02.247Z,94314.88
2022-09-06T19:01:30.293Z,94325.00
2022-09-06T19:03:57.880Z,94326.16
2022-09-06T19:06:25.110Z,94326.53
2022-09-06T19:08:53.860Z,94323.44
2022-09-06T19:11:22.260Z,94327.31
2022-09-06T19:13:53.645Z,94330.44
2022-09-06T19:16:21.986Z,94310.59
2022-09-06T19:18:49.263Z,94312.16
2022-09-06T19:21:19.087Z,94313.31
2022-09-06T19:23:47.757Z,94315.66
2022-09-06T19:26:19.922Z,94311.75
2022-09-06T19:28:53.119Z,94316.47
2022-09-06T19:31:19.943Z,94312.97
2022-09-06T19:33:48.031Z,94319.59
2022-09-06T19:36:15.877Z,94311.81
2022-09-06T19:39:02.109Z,94303.25
2022-09-06T19:41:30.486Z,94295.47
2022-09-06T19:43:58.551Z,94297.41
2022-09-06T19:46:26.757Z,94292.34
2022-09-06T19:48:58.513Z,94292.34
2022-09-06T19:51:25.178Z,94299.38
2022-09-06T19:53:53.988Z,94305.59
2022-09-06T19:56:23.659Z,94306.38
2022-09-06T19:58:59.100Z,94304.03
2022-09-06T20:01:29.235Z,94299.78
2022-09-06T20:03:56.500Z,94295.88
2022-09-06T20:06:23.361Z,94286.94
2022-09-06T20:08:52.382Z,94291.63
2022-09-06T20:11:24.392Z,94296.31
2022-09-06T20:13:51.150Z,94297.84
2022-09-06T20:16:20.802Z,94289.69
2022-09-06T20:18:48.481Z,94274.88
2022-09-06T20:21:17.745Z,94290.06
2022-09-06T20:23:49.508Z,94286.16
2022-09-06T20:26:16.444Z,94283.84
2022-09-06T20:28:44.238Z,94278.00
2022-09-06T20:31:13.801Z,94271.78
2022-09-06T20:33:40.734Z,94265.94
2022-09-06T20:36:10.872Z,94268.66
2022-09-06T20:38:42.623Z,94270.56
2022-09-06T20:41:13.555Z,94270.22
2022-09-06T20:43:41.380Z,94258.91
2022-09-06T20:46:12.376Z,94267.88
2022-09-06T20:48:44.171Z,94255.00
2022-09-06T20:51:19.099Z,94267.47
2022-09-06T20:53:56.339Z,94260.44
2022-09-06T20:56:28.223Z,94262.41
2022-09-06T20:58:57.442Z,94269.00
2022-09-06T21:01:26.173Z,94275.19
2022-09-06T21:03:58.863Z,94279.84
2022-09-06T21:06:27.631Z,94263.53
2022-09-06T21:08:55.180Z,94269.72
2022-09-06T21:11:22.746Z,94252.22
2022-09-06T21:13:53.531Z,94263.09
2022-09-06T21:16:24.380Z,94259.19
2022-09-06T21:18:57.001Z,94280.56
2022-09-06T21:21:24.780Z,94280.16
2022-09-06T21:23:51.766Z,94275.53
2022-09-06T21:26:18.754Z,94273.56
2022-09-06T21:28:47.179Z,94275.53
2022-09-06T21:31:25.777Z,94279.00
2022-09-06T21:33:57.309Z,94272.81
2022-09-06T21:36:31.576Z,94283.28
2022-09-06T21:39:01.146Z,94280.56
2022-09-06T21:41:29.063Z,94274.34
2022-09-06T21:43:58.653Z,94274.69
2022-09-06T21:46:32.575Z,94282.06
2022-09-06T21:49:05.601Z,94289.81
2022-09-06T21:51:32.757Z,94282.41
2022-09-06T21:54:03.527Z,94289.81
2022-09-06T21:56:30.969Z,94284.41
2022-09-06T21:58:58.712Z,94279.31
2022-09-06T22:01:28.102Z,94273.09
2022-09-06T22:03:55.772Z,94276.59
2022-09-06T22:06:26.260Z,94271.97
2022-09-06T22:08:54.059Z,94271.56
2022-09-06T22:11:26.546Z,94273.91
2022-09-06T22:13:53.740Z,94281.66
2022-09-06T22:16:22.469Z,94272.34
2022-09-06T22:18:49.958Z,94277.75
2022-09-06T22:21:20.210Z,94278.94
2022-09-06T22:23:55.635Z,94269.56
2022-09-06T22:26:23.254Z,94264.09
2022-09-06T22:28:57.825Z,94267.59
2022-09-06T22:31:27.091Z,94256.34
2022-09-06T22:33:54.919Z,94250.53
2022-09-06T22:36:23.836Z,94257.19
2022-09-06T22:38:57.445Z,94259.47
2022-09-06T22:41:26.564Z,94246.25
2022-09-06T22:43:54.092Z,94250.50
2022-09-06T22:46:21.181Z,94255.94
2022-09-06T22:48:49.430Z,94243.88
2022-09-06T22:51:16.701Z,94249.31
2022-09-06T22:53:43.990Z,94256.28
2022-09-06T22:56:11.143Z,94252.03
2022-09-06T22:58:38.317Z,94243.84
2022-09-06T23:01:10.618Z,94243.06
2022-09-06T23:03:38.235Z,94246.19
2022-09-06T23:06:05.701Z,94239.16
2022-09-06T23:08:35.000Z,94223.97
2022-09-06T23:11:13.477Z,94242.28
2022-09-06T23:13:44.126Z,94243.44
2022-09-06T23:16:19.412Z,94240.69
2022-09-06T23:18:47.227Z,94245.34
2022-09-06T23:21:17.139Z,94232.91
2022-09-06T23:23:44.218Z,94237.22
2022-09-06T23:26:30.562Z,94241.06
2022-09-06T23:28:58.162Z,94241.84
2022-09-06T23:31:27.350Z,94234.47
2022-09-06T23:33:58.983Z,94233.31
2022-09-06T23:36:26.223Z,94233.31
2022-09-06T23:38:53.208Z,94222.03
2022-09-06T23:41:20.341Z,94224.75
2022-09-06T23:43:47.038Z,94223.19
2022-09-06T23:46:17.006Z,94220.06
2022-09-06T23:48:43.714Z,94218.88
2022-09-06T23:51:11.171Z,94227.06
2022-09-06T23:53:38.471Z,94223.56
2022-09-06T23:56:05.843Z,94220.47
2022-09-06T23:58:32.941Z,94212.66
